Terminal Aerodrome Forecast
Issued by NWS

Home | Current Version | Previous Version | Text Only | Print | Product List | Glossary Off
Versions: 1 2 3 4 5 6 7 8 9 10 11 12 13 14 15 16 17 18 19 20

000
FTUS43 KTOP 190900 AAA
TAFFOE
TAF AMD
KFOE 190910Z 1909/2006 02002KT 6SM BR OVC005
     FM191600 15003KT 6SM BR OVC007
     FM192000 18005KT 6SM BR SCT007 OVC011=

USA.gov is the U.S. government's official web portal to all federal, state and local government web resources and services.